Time;durP1;ratioP1;P1;durP2;ratioP2;P2;SDS_P1;SDS_P2;PMS_P1;PMS_P2;Temp;Humidity;BMP_temperature;BMP_pressure;BME280_temperature;BME280_humidity;BME280_pressure;Samples;Min_cycle;Max_cycle;Signal;HPM_P1;HPM_P2
2023/07/20 00:01:53;;;;;;;11.27;5.37;;;;;;;18.81;100.00;99696.58;1465528;88;21532;-78
2023/07/20 00:04:19;;;;;;;5.83;4.87;;;;;;;18.80;100.00;99709.69;1470853;88;21428;-78
2023/07/20 00:06:45;;;;;;;6.57;4.13;;;;;;;18.80;100.00;99713.71;1469551;87;21482;-77
2023/07/20 00:09:11;;;;;;;7.50;4.67;;;;;;;18.79;100.00;99711.23;1418842;91;21458;-78
2023/07/20 00:11:40;;;;;;;6.80;4.60;;;;;;;18.81;100.00;99717.20;1437892;89;21397;-77
2023/07/20 00:14:06;;;;;;;7.23;4.63;;;;;;;18.79;100.00;99712.08;1410921;91;21457;-78
2023/07/20 00:16:33;;;;;;;6.90;4.13;;;;;;;18.75;100.00;99705.50;1420492;91;21440;-78
2023/07/20 00:18:59;;;;;;;6.17;4.10;;;;;;;18.71;100.00;99709.63;1419504;91;22147;-79
2023/07/20 00:21:26;;;;;;;10.13;4.50;;;;;;;18.70;100.00;99705.30;1462207;88;22272;-79
2023/07/20 00:23:52;;;;;;;7.53;4.73;;;;;;;18.71;100.00;99714.47;1464558;87;21421;-77
2023/07/20 00:26:19;;;;;;;6.70;4.53;;;;;;;18.71;100.00;99712.31;1471426;88;21597;-78
2023/07/20 00:28:45;;;;;;;9.43;5.70;;;;;;;18.66;100.00;99704.09;1470586;88;22058;-78
2023/07/20 00:31:11;;;;;;;8.07;4.27;;;;;;;18.65;100.00;99703.81;1471759;88;21642;-79
2023/07/20 00:33:37;;;;;;;5.67;3.80;;;;;;;18.68;100.00;99702.03;1468990;88;22417;-77
2023/07/20 00:36:04;;;;;;;7.93;4.10;;;;;;;18.64;100.00;99705.67;1463114;88;21516;-78
2023/07/20 00:38:30;;;;;;;5.87;4.50;;;;;;;18.57;100.00;99705.41;1462105;88;21425;-78
2023/07/20 00:40:56;;;;;;;6.57;4.63;;;;;;;18.52;100.00;99699.88;1463944;88;21479;-78
2023/07/20 00:43:22;;;;;;;5.47;4.90;;;;;;;18.52;100.00;99694.52;1473479;88;21528;-78
2023/07/20 00:45:49;;;;;;;7.50;4.10;;;;;;;18.55;100.00;99696.76;1462502;88;21472;-78
2023/07/20 00:48:15;;;;;;;6.10;4.37;;;;;;;18.54;100.00;99695.13;1473558;88;21390;-77
2023/07/20 00:50:42;;;;;;;5.67;4.30;;;;;;;18.49;100.00;99683.19;1466774;88;21626;-78
2023/07/20 00:53:08;;;;;;;5.50;4.17;;;;;;;18.47;100.00;99681.27;1469404;88;21554;-76
2023/07/20 00:55:36;;;;;;;5.10;3.97;;;;;;;18.42;100.00;99679.75;1469477;88;21493;-76
2023/07/20 00:58:02;;;;;;;4.97;4.17;;;;;;;18.38;100.00;99672.35;1465196;88;21472;-77
2023/07/20 01:00:28;;;;;;;8.93;4.60;;;;;;;18.34;100.00;99671.16;1463100;88;22439;-78
2023/07/20 01:02:55;;;;;;;11.83;4.90;;;;;;;18.31;100.00;99672.41;1463067;88;21517;-78
2023/07/20 01:05:24;;;;;;;10.03;5.40;;;;;;;18.28;100.00;99681.40;1470715;88;21406;-77
2023/07/20 01:08:02;;;;;;;8.07;6.07;;;;;;;18.26;100.00;99686.44;1463644;88;22843;-77
2023/07/20 01:11:02;;;;;;;8.33;5.50;;;;;;;18.22;100.00;99684.42;1462336;88;21406;-77
2023/07/20 01:13:29;;;;;;;8.68;4.90;;;;;;;18.17;100.00;99685.58;1467531;88;21428;-77
2023/07/20 01:16:02;;;;;;;7.60;5.50;;;;;;;18.17;100.00;99682.90;1465915;88;21428;-78
2023/07/20 01:18:28;;;;;;;10.20;6.53;;;;;;;18.17;100.00;99688.25;1473497;88;22248;-77
2023/07/20 01:21:02;;;;;;;8.00;5.93;;;;;;;18.14;100.00;99688.69;1456900;88;23495;-77
2023/07/20 01:24:17;;;;;;;5.83;5.23;;;;;;;18.16;100.00;99690.64;1464678;88;21532;-77
2023/07/20 01:27:21;;;;;;;5.87;4.70;;;;;;;18.20;100.00;99702.55;1461193;88;21383;-78
2023/07/20 01:30:05;;;;;;;7.60;4.50;;;;;;;18.23;100.00;99692.75;1455799;88;21493;-78
2023/07/20 01:32:32;;;;;;;5.67;3.93;;;;;;;18.16;100.00;99693.32;1422273;89;23838;-77
2023/07/20 01:35:01;;;;;;;5.20;4.10;;;;;;;18.10;100.00;99695.52;1469615;88;21426;-78
2023/07/20 01:37:29;;;;;;;4.87;3.63;;;;;;;18.03;100.00;99690.18;1457370;88;22360;-78
2023/07/20 01:39:56;;;;;;;3.13;2.83;;;;;;;17.98;100.00;99690.84;1467090;88;22639;-78
2023/07/20 01:42:24;;;;;;;3.03;2.73;;;;;;;17.94;100.00;99684.25;1430731;88;21486;-75
2023/07/20 01:44:53;;;;;;;12.40;4.30;;;;;;;17.83;100.00;99675.55;1470554;88;21546;-77
2023/07/20 01:47:20;;;;;;;3.22;2.58;;;;;;;17.73;100.00;99674.65;1464267;88;21451;-78
2023/07/20 01:49:46;;;;;;;6.13;3.37;;;;;;;17.64;100.00;99669.77;1472114;88;21504;-78
2023/07/20 01:52:12;;;;;;;3.33;3.03;;;;;;;17.58;100.00;99671.42;1460504;88;21593;-77
2023/07/20 01:54:39;;;;;;;6.00;4.70;;;;;;;17.53;100.00;99664.55;1472460;88;22341;-76
2023/07/20 01:57:05;;;;;;;5.93;4.17;;;;;;;17.52;100.00;99674.43;1465193;88;21494;-78
2023/07/20 01:59:31;;;;;;;7.57;3.83;;;;;;;17.52;100.00;99668.23;1468079;88;22271;-78
2023/07/20 02:01:57;;;;;;;4.00;3.67;;;;;;;17.50;100.00;99667.13;1458838;88;21487;-78
2023/07/20 02:04:24;;;;;;;3.40;2.70;;;;;;;17.49;100.00;99666.83;1460668;88;21494;-78
2023/07/20 02:06:50;;;;;;;6.67;3.73;;;;;;;17.47;100.00;99671.56;1458547;88;21465;-78
2023/07/20 02:09:16;;;;;;;4.97;4.47;;;;;;;17.48;100.00;99663.83;1458831;88;21609;-77
2023/07/20 02:11:42;;;;;;;5.03;4.53;;;;;;;17.48;100.00;99665.17;1458825;88;21354;-77
2023/07/20 02:14:08;;;;;;;8.77;6.60;;;;;;;17.44;100.00;99662.62;1458584;88;22066;-78
2023/07/20 02:16:34;;;;;;;7.90;4.63;;;;;;;17.37;100.00;99651.92;1456310;88;21429;-79
2023/07/20 02:19:01;;;;;;;5.90;4.63;;;;;;;17.34;100.00;99654.20;1457234;88;22314;-79
2023/07/20 02:21:27;;;;;;;5.23;4.63;;;;;;;17.33;100.00;99653.91;1454219;88;21451;-79
2023/07/20 02:23:53;;;;;;;6.00;4.93;;;;;;;17.33;100.00;99655.25;1458241;88;21649;-79
2023/07/20 02:26:19;;;;;;;17.07;5.47;;;;;;;17.36;100.00;99652.15;1454959;88;21670;-79
2023/07/20 02:28:46;;;;;;;14.47;5.80;;;;;;;17.41;100.00;99650.19;1458813;88;21487;-79
2023/07/20 02:31:12;;;;;;;11.10;5.23;;;;;;;17.39;100.00;99647.72;1454431;88;21546;-79
2023/07/20 02:33:38;;;;;;;6.87;5.33;;;;;;;17.36;100.00;99650.81;1457398;88;21436;-77
2023/07/20 02:36:04;;;;;;;5.33;4.83;;;;;;;17.34;100.00;99655.55;1462082;88;21612;-78
2023/07/20 02:38:30;;;;;;;9.73;6.03;;;;;;;17.33;100.00;99660.59;1453523;88;22281;-77
2023/07/20 02:40:57;;;;;;;4.60;4.17;;;;;;;17.32;100.00;99665.62;1452772;88;21994;-77
2023/07/20 02:43:23;;;;;;;5.37;4.87;;;;;;;17.31;100.00;99669.34;1466321;88;21546;-78
2023/07/20 02:45:50;;;;;;;6.17;5.57;;;;;;;17.34;100.00;99668.91;1461628;88;22375;-78
2023/07/20 02:48:17;;;;;;;8.90;5.17;;;;;;;17.39;100.00;99670.97;1462615;88;21569;-79
2023/07/20 02:50:44;;;;;;;6.30;5.67;;;;;;;17.39;100.00;99665.63;1465918;88;21678;-78
2023/07/20 02:53:10;;;;;;;9.67;6.17;;;;;;;17.34;100.00;99664.91;1462265;88;21501;-78
2023/07/20 02:55:36;;;;;;;8.63;6.10;;;;;;;17.28;100.00;99675.92;1464653;88;21604;-78
2023/07/20 02:58:02;;;;;;;7.27;6.10;;;;;;;17.25;100.00;99669.66;1454597;88;21516;-79
2023/07/20 03:00:28;;;;;;;12.43;5.77;;;;;;;17.26;100.00;99667.31;1453198;88;21464;-78
2023/07/20 03:02:55;;;;;;;14.70;5.13;;;;;;;17.28;100.00;99667.08;1461759;88;21479;-78
2023/07/20 03:05:25;;;;;;;6.47;4.60;;;;;;;17.23;100.00;99662.88;1468049;87;21494;-78
2023/07/20 03:07:51;;;;;;;8.33;4.97;;;;;;;17.24;100.00;99677.91;1426781;91;21657;-79
2023/07/20 03:10:18;;;;;;;4.80;4.40;;;;;;;17.25;100.00;99678.20;1461240;88;21502;-78
2023/07/20 03:12:44;;;;;;;7.40;5.20;;;;;;;17.30;100.00;99675.73;1459819;88;21406;-78
2023/07/20 03:15:10;;;;;;;8.50;5.17;;;;;;;17.35;100.00;99676.74;1467505;88;21545;-78
2023/07/20 03:17:36;;;;;;;5.40;4.90;;;;;;;17.42;100.00;99671.36;1466529;88;22090;-79
2023/07/20 03:20:05;;;;;;;5.13;4.63;;;;;;;17.48;100.00;99671.86;1468227;88;21502;-80
2023/07/20 03:22:31;;;;;;;5.30;4.40;;;;;;;17.52;100.00;99677.11;1471875;88;22350;-79
2023/07/20 03:24:57;;;;;;;5.50;4.73;;;;;;;17.53;100.00;99681.41;1478260;88;21435;-79
2023/07/20 03:27:23;;;;;;;5.07;4.53;;;;;;;17.55;100.00;99676.68;1471252;88;22274;-79
2023/07/20 03:29:49;;;;;;;4.90;4.37;;;;;;;17.56;100.00;99671.63;1466007;88;21391;-79
2023/07/20 03:32:16;;;;;;;6.40;4.60;;;;;;;17.60;100.00;99675.51;1477620;88;21428;-78
2023/07/20 03:34:42;;;;;;;4.97;3.77;;;;;;;17.67;100.00;99665.33;1463758;88;21567;-79
2023/07/20 03:37:08;;;;;;;7.03;4.30;;;;;;;17.72;100.00;99670.34;1463189;88;21471;-78
2023/07/20 03:39:34;;;;;;;6.87;3.90;;;;;;;17.75;100.00;99669.07;1463434;88;21509;-78
2023/07/20 03:42:00;;;;;;;5.87;3.87;;;;;;;17.78;100.00;99667.34;1471291;88;22344;-78
2023/07/20 03:44:26;;;;;;;3.90;3.50;;;;;;;17.79;100.00;99668.47;1462945;88;21487;-78
2023/07/20 03:46:53;;;;;;;5.23;4.43;;;;;;;17.74;100.00;99674.13;1462664;88;21554;-78
2023/07/20 03:49:19;;;;;;;6.83;4.17;;;;;;;17.73;100.00;99672.50;1461379;88;22492;-79
2023/07/20 03:51:45;;;;;;;6.23;4.97;;;;;;;17.76;100.00;99674.75;1465073;88;21582;-79
2023/07/20 03:54:11;;;;;;;10.83;4.17;;;;;;;17.75;100.00;99679.77;1457597;88;21561;-79
2023/07/20 03:56:38;;;;;;;6.30;5.70;;;;;;;17.73;100.00;99675.98;1469102;88;22506;-79
2023/07/20 03:59:04;;;;;;;7.07;5.80;;;;;;;17.74;100.00;99680.30;1474708;88;21450;-79
2023/07/20 04:01:36;;;;;;;11.20;5.90;;;;;;;17.77;100.00;99680.39;1470324;88;21650;-79
2023/07/20 04:03:59;;;;;;;9.23;5.67;;;;;;;17.78;100.00;99675.36;1458833;88;21502;-78
2023/07/20 04:06:25;;;;;;;7.93;6.47;;;;;;;17.79;100.00;99675.16;1472214;89;22374;-78
2023/07/20 04:08:51;;;;;;;8.13;4.10;;;;;;;17.86;100.00;99674.31;1463310;89;22551;-78
2023/07/20 04:11:18;;;;;;;5.23;4.73;;;;;;;17.85;100.00;99676.69;1466456;89;21524;-78
2023/07/20 04:13:44;;;;;;;6.00;3.60;;;;;;;17.88;100.00;99668.23;1467605;88;21577;-78
2023/07/20 04:16:10;;;;;;;7.53;4.35;;;;;;;17.85;100.00;99668.14;1471172;89;21465;-77
2023/07/20 04:18:36;;;;;;;6.30;3.83;;;;;;;17.89;100.00;99663.98;1466874;89;21539;-78
2023/07/20 04:21:02;;;;;;;5.00;4.10;;;;;;;17.94;100.00;99666.85;1459536;89;22003;-77
2023/07/20 04:23:29;;;;;;;4.43;3.50;;;;;;;17.99;100.00;99655.52;1465023;89;21572;-78
2023/07/20 04:25:55;;;;;;;4.40;4.00;;;;;;;18.02;100.00;99661.25;1467375;89;21458;-78
2023/07/20 04:28:21;;;;;;;5.92;3.60;;;;;;;18.10;100.00;99662.05;1468305;89;21501;-77
2023/07/20 04:30:54;;;;;;;6.55;4.47;;;;;;;18.19;100.00;99675.48;1464380;89;21594;-77
2023/07/20 04:33:18;;;;;;;;;;;;;;;18.30;100.00;99673.45;1470520;89;21487;-79
2023/07/20 04:35:53;;;;;;;6.03;4.22;;;;;;;18.41;100.00;99665.22;1468794;89;20350;-78
2023/07/20 04:38:20;;;;;;;4.97;4.35;;;;;;;18.51;100.00;99663.41;1465083;89;21458;-76
2023/07/20 04:40:48;;;;;;;6.62;4.55;;;;;;;18.63;100.00;99649.60;1391664;89;21399;-77
2023/07/20 04:43:16;;;;;;;19.45;5.08;;;;;;;18.71;100.00;99653.34;1393734;88;21414;-77
2023/07/20 04:45:42;;;;;;;4.85;4.08;;;;;;;18.81;100.00;99655.03;1397194;89;21459;-77
2023/07/20 04:48:15;;;;;;;4.87;4.22;;;;;;;18.90;100.00;99656.41;1392486;89;21576;-77
2023/07/20 04:50:43;;;;;;;5.20;4.22;;;;;;;19.04;100.00;99656.27;1388284;89;21370;-77
2023/07/20 04:53:10;;;;;;;5.70;4.85;;;;;;;19.22;100.00;99648.25;1390438;89;21484;-76
2023/07/20 04:55:37;;;;;;;9.18;4.08;;;;;;;19.39;100.00;99643.08;1391935;89;21422;-77
2023/07/20 04:58:04;;;;;;;6.67;4.65;;;;;;;19.54;100.00;99642.73;1396811;89;21347;-78
2023/07/20 05:00:34;;;;;;;4.80;3.72;;;;;;;19.59;100.00;99639.66;1516465;89;21629;-77
2023/07/20 05:03:01;;;;;;;5.65;4.25;;;;;;;19.70;100.00;99643.46;1519854;88;22280;-77
2023/07/20 05:05:27;;;;;;;6.45;4.45;;;;;;;19.81;100.00;99640.01;1401139;88;22257;-77
2023/07/20 05:07:54;;;;;;;8.13;4.95;;;;;;;19.92;100.00;99645.67;1396129;88;21326;-77
2023/07/20 05:10:20;;;;;;;5.03;4.58;;;;;;;20.00;100.00;99652.06;1395014;88;22382;-75
2023/07/20 05:12:46;;;;;;;8.95;5.03;;;;;;;20.05;100.00;99653.52;1400428;88;21310;-77
2023/07/20 05:15:13;;;;;;;9.30;6.53;;;;;;;20.06;100.00;99652.50;1395588;88;21318;-77
2023/07/20 05:17:39;;;;;;;5.85;4.90;;;;;;;20.14;100.00;99645.96;1395938;88;22313;-77
2023/07/20 05:20:09;;;;;;;10.68;5.42;;;;;;;20.25;100.00;99647.36;1394922;88;21414;-77
2023/07/20 05:22:35;;;;;;;6.42;4.95;;;;;;;20.37;100.00;99653.27;1554497;88;21354;-78
2023/07/20 05:25:01;;;;;;;5.22;4.03;;;;;;;20.52;100.00;99657.69;1401411;88;22391;-77
2023/07/20 05:27:27;;;;;;;6.75;5.03;;;;;;;20.64;100.00;99651.02;1553560;88;21341;-77
2023/07/20 05:29:53;;;;;;;11.57;4.83;;;;;;;20.75;100.00;99653.43;1395807;88;21355;-77
2023/07/20 05:32:19;;;;;;;8.33;5.40;;;;;;;20.80;100.00;99654.38;1368496;91;22360;-77
2023/07/20 05:34:45;;;;;;;9.73;5.28;;;;;;;20.89;100.00;99658.87;1396135;88;21362;-78
2023/07/20 05:37:12;;;;;;;8.90;5.85;;;;;;;20.97;100.00;99655.80;1395911;88;21318;-77
2023/07/20 05:39:38;;;;;;;7.17;5.25;;;;;;;21.02;100.00;99662.66;1400958;88;21511;-78
2023/07/20 05:42:04;;;;;;;17.95;5.22;;;;;;;21.07;100.00;99662.77;1410658;88;21451;-79
2023/07/20 05:44:31;;;;;;;12.65;6.00;;;;;;;21.07;100.00;99662.77;1393584;88;21347;-79
2023/07/20 05:46:57;;;;;;;9.23;6.10;;;;;;;21.11;100.00;99669.30;1379562;90;21487;-78
2023/07/20 05:49:23;;;;;;;9.68;5.15;;;;;;;21.11;100.00;99672.53;1395653;88;21333;-78
2023/07/20 05:51:49;;;;;;;7.35;5.70;;;;;;;21.08;100.00;99683.23;1395777;88;21462;-75
2023/07/20 05:54:16;;;;;;;14.20;5.45;;;;;;;21.08;100.00;99683.23;1396205;88;21362;-77
2023/07/20 05:56:42;;;;;;;11.45;4.90;;;;;;;21.07;100.00;99691.02;1395780;88;21319;-76
2023/07/20 05:59:09;;;;;;;10.48;4.97;;;;;;;21.09;100.00;99694.30;1401037;88;21474;-77
2023/07/20 06:01:35;;;;;;;6.67;4.75;;;;;;;21.19;100.00;99693.70;1451390;88;21362;-77
2023/07/20 06:04:03;;;;;;;8.17;4.87;;;;;;;21.18;100.00;99700.96;1385683;90;21569;-77
2023/07/20 06:06:29;;;;;;;7.15;4.92;;;;;;;21.19;100.00;99701.78;1401847;88;21435;-76
2023/07/20 06:08:55;;;;;;;6.87;4.37;;;;;;;21.28;100.00;99691.47;1381556;90;22235;-77
2023/07/20 06:11:22;;;;;;;15.28;5.85;;;;;;;21.37;100.00;99706.23;1445912;88;21535;-81
2023/07/20 06:13:48;;;;;;;6.33;5.03;;;;;;;21.38;100.00;99701.16;1474184;88;21494;-80
2023/07/20 06:16:16;;;;;;;11.25;4.90;;;;;;;21.43;100.00;99704.47;1448634;90;21523;-81
2023/07/20 06:18:42;;;;;;;11.25;4.78;;;;;;;21.45;100.00;99700.49;1421630;91;21452;-81
2023/07/20 06:21:09;;;;;;;6.03;4.58;;;;;;;21.45;100.00;99703.72;1438438;90;21463;-81
2023/07/20 06:23:35;;;;;;;6.05;4.90;;;;;;;21.46;100.00;99702.12;1445432;90;21471;-81
2023/07/20 06:26:02;;;;;;;5.83;5.33;;;;;;;21.49;100.00;99705.71;1448807;90;21443;-81
2023/07/20 06:28:28;;;;;;;6.90;5.17;;;;;;;21.49;100.00;99708.41;1445774;90;22389;-80
2023/07/20 06:31:01;;;;;;;6.55;5.92;;;;;;;21.48;100.00;99701.89;1447611;90;21456;-81
2023/07/20 06:33:27;;;;;;;9.90;6.12;;;;;;;21.54;100.00;99712.52;1440841;90;21597;-80
2023/07/20 06:35:54;;;;;;;9.95;5.70;;;;;;;21.65;100.00;99712.75;1444653;90;21428;-81
2023/07/20 06:38:22;;;;;;;9.13;4.95;;;;;;;21.72;100.00;99718.81;1448491;90;21523;-80
2023/07/20 06:40:50;;;;;;;11.05;5.25;;;;;;;21.78;100.00;99712.47;1440491;90;21538;-80
2023/07/20 06:43:16;;;;;;;7.75;4.47;;;;;;;21.84;100.00;99719.63;1440871;90;21487;-83
2023/07/20 06:45:43;;;;;;;15.18;8.85;;;;;;;21.81;100.00;99721.45;1437466;90;21588;-80
2023/07/20 06:48:10;;;;;;;5.55;4.92;;;;;;;21.69;100.00;99724.67;1442940;90;21472;-81
2023/07/20 06:50:36;;;;;;;11.83;5.37;;;;;;;21.70;100.00;99720.95;1442959;90;21487;-81
2023/07/20 06:53:03;;;;;;;5.45;4.70;;;;;;;21.74;100.00;99707.28;1446209;90;22507;-81
2023/07/20 06:55:30;;;;;;;5.70;4.40;;;;;;;21.75;100.00;99707.56;1448109;90;21516;-81
2023/07/20 06:57:56;;;;;;;6.87;5.03;;;;;;;21.75;100.00;99705.71;1446968;90;22381;-81
2023/07/20 07:00:22;;;;;;;7.90;5.55;;;;;;;21.86;100.00;99702.67;1444075;90;21432;-81
2023/07/20 07:02:49;;;;;;;7.05;5.40;;;;;;;21.96;100.00;99697.50;1447799;90;21472;-80
2023/07/20 07:05:15;;;;;;;8.60;5.45;;;;;;;22.10;100.00;99692.64;1439519;90;21553;-81
2023/07/20 07:07:42;;;;;;;9.60;5.95;;;;;;;22.17;100.00;99699.23;1439434;90;21464;-81
2023/07/20 07:10:08;;;;;;;8.43;6.03;;;;;;;22.35;100.00;99697.69;1445061;90;21598;-81
2023/07/20 07:12:35;;;;;;;10.68;5.95;;;;;;;22.51;100.00;99698.25;1441441;90;21547;-81
2023/07/20 07:15:08;;;;;;;7.30;5.53;;;;;;;22.67;100.00;99695.80;1451049;90;21628;-82
2023/07/20 07:17:35;;;;;;;10.35;6.12;;;;;;;22.74;100.00;99689.19;1440376;90;22558;-81
2023/07/20 07:20:01;;;;;;;10.95;7.40;;;;;;;22.94;100.00;99691.39;1441841;90;21420;-81
2023/07/20 07:22:27;;;;;;;8.48;7.35;;;;;;;23.01;100.00;99690.43;1436113;90;22463;-81
2023/07/20 07:24:53;;;;;;;10.65;7.53;;;;;;;23.12;100.00;99693.03;1447728;90;21442;-80
2023/07/20 07:27:20;;;;;;;14.68;8.43;;;;;;;23.27;100.00;99705.11;1441491;90;21428;-79
2023/07/20 07:29:46;;;;;;;10.88;7.22;;;;;;;23.23;100.00;99710.20;1434529;90;22382;-82
2023/07/20 07:32:13;;;;;;;9.05;6.08;;;;;;;23.32;100.00;99716.80;1443020;90;21584;-83
2023/07/20 07:34:39;;;;;;;7.50;6.12;;;;;;;23.49;100.00;99707.84;1433563;90;21516;-82
2023/07/20 07:37:06;;;;;;;8.10;5.53;;;;;;;23.62;100.00;99708.81;1436570;90;21606;-79
2023/07/20 07:39:32;;;;;;;8.20;6.80;;;;;;;23.79;100.00;99700.14;1440727;90;22499;-80
2023/07/20 07:41:58;;;;;;;9.58;5.75;;;;;;;23.93;100.00;99699.22;1435326;90;21428;-79
2023/07/20 07:44:24;;;;;;;6.55;5.22;;;;;;;24.08;100.00;99695.86;1439275;90;22112;-80
2023/07/20 07:46:55;;;;;;;8.08;5.37;;;;;;;24.26;100.00;99695.53;1435129;90;22389;-80
2023/07/20 07:49:22;;;;;;;8.10;5.92;;;;;;;24.30;99.88;99703.94;1438290;90;22389;-80
2023/07/20 07:51:48;;;;;;;7.92;6.42;;;;;;;24.41;100.00;99703.51;1433665;90;21428;-80
2023/07/20 07:54:15;;;;;;;11.73;5.03;;;;;;;24.47;98.50;99702.51;1441164;90;21594;-80
2023/07/20 07:56:44;;;;;;;6.58;4.80;;;;;;;24.56;99.96;99699.61;1437321;90;21562;-79
2023/07/20 07:59:11;;;;;;;6.85;4.67;;;;;;;24.62;98.85;99700.47;1439061;90;21517;-79
2023/07/20 08:01:37;;;;;;;7.33;5.53;;;;;;;24.73;98.15;99698.94;1442434;90;21999;-80
2023/07/20 08:04:04;;;;;;;9.08;4.70;;;;;;;24.89;97.03;99697.72;1442279;90;21611;-80
2023/07/20 08:06:31;;;;;;;8.95;5.83;;;;;;;24.96;96.29;99699.66;1434540;90;22046;-79
2023/07/20 08:08:57;;;;;;;6.08;5.30;;;;;;;25.05;95.71;99704.85;1436859;90;22758;-80
2023/07/20 08:11:24;;;;;;;5.75;5.15;;;;;;;25.12;94.49;99701.94;1441516;90;21428;-79
2023/07/20 08:13:50;;;;;;;6.92;5.17;;;;;;;25.03;93.63;99703.48;1444818;90;21613;-80
2023/07/20 08:16:17;;;;;;;8.03;4.87;;;;;;;25.14;94.63;99696.55;1442691;90;21472;-80
2023/07/20 08:18:45;;;;;;;6.08;4.83;;;;;;;25.30;94.79;99700.72;1436172;90;22276;-80
2023/07/20 08:21:11;;;;;;;8.50;5.35;;;;;;;25.29;92.40;99700.42;1441397;90;21685;-81
2023/07/20 08:23:37;;;;;;;8.00;4.95;;;;;;;25.29;90.95;99703.97;1444085;90;22499;-80
2023/07/20 08:26:04;;;;;;;9.73;4.72;;;;;;;25.26;91.75;99706.36;1436327;90;21649;-80
2023/07/20 08:28:30;;;;;;;4.62;4.22;;;;;;;25.24;91.62;99699.88;1436336;90;21502;-81
2023/07/20 08:30:56;;;;;;;6.65;4.62;;;;;;;25.10;90.03;99700.02;1438131;90;21406;-79
2023/07/20 08:33:23;;;;;;;6.67;4.75;;;;;;;25.01;90.14;99699.70;1442181;90;21449;-79
2023/07/20 08:35:49;;;;;;;7.08;4.37;;;;;;;25.17;92.18;99701.44;1440216;90;21539;-80
2023/07/20 08:38:16;;;;;;;8.13;4.78;;;;;;;25.39;92.17;99701.30;1429391;90;22315;-80
2023/07/20 08:40:45;;;;;;;9.05;4.83;;;;;;;25.66;91.70;99700.33;1423113;90;22037;-80
2023/07/20 08:43:13;;;;;;;4.95;4.08;;;;;;;25.80;87.32;99697.95;1441352;90;21487;-79
2023/07/20 08:45:41;;;;;;;7.22;4.62;;;;;;;25.81;88.74;99698.25;1443718;90;21532;-80
2023/07/20 08:48:09;;;;;;;7.28;4.67;;;;;;;25.99;89.42;99695.06;1397554;90;22439;-80
2023/07/20 08:50:36;;;;;;;7.95;4.65;;;;;;;26.18;88.46;99695.39;1439793;90;21635;-80
2023/07/20 08:53:03;;;;;;;5.72;4.70;;;;;;;26.16;87.60;99695.39;1436799;90;21620;-79
2023/07/20 08:55:30;;;;;;;8.43;5.10;;;;;;;26.14;86.66;99697.55;1438554;90;21509;-79
2023/07/20 08:58:00;;;;;;;4.90;3.98;;;;;;;26.20;87.39;99704.05;1521146;90;22191;-80
2023/07/20 09:00:26;;;;;;;;;;;;;;;26.19;87.02;99697.56;1365654;90;21450;-79
2023/07/20 09:02:54;;;;;;;5.37;4.45;;;;;;;26.36;88.75;99700.03;1373171;90;20332;-78
2023/07/20 09:05:27;;;;;;;6.85;4.35;;;;;;;26.51;87.57;99700.88;1374202;90;21414;-79
2023/07/20 09:07:54;;;;;;;11.97;4.85;;;;;;;26.54;86.64;99702.23;1525198;90;21339;-79
2023/07/20 09:10:22;;;;;;;10.72;4.83;;;;;;;26.66;87.18;99706.03;1370710;90;21506;-80
2023/07/20 09:12:49;;;;;;;8.13;4.70;;;;;;;26.61;84.78;99708.20;1368972;90;21383;-79
2023/07/20 09:15:16;;;;;;;10.25;5.25;;;;;;;26.61;85.44;99708.20;1375203;90;22346;-80
2023/07/20 09:17:50;;;;;;;5.90;4.75;;;;;;;26.74;86.21;99706.30;1525493;90;21318;-79
2023/07/20 09:20:18;;;;;;;6.62;5.40;;;;;;;26.90;86.20;99703.05;1367591;90;21398;-78
2023/07/20 09:22:45;;;;;;;10.40;4.85;;;;;;;26.85;83.91;99709.84;1374396;90;21361;-80
2023/07/20 09:25:19;;;;;;;8.05;4.37;;;;;;;26.97;84.70;99699.50;1370446;90;22339;-79
2023/07/20 09:27:48;;;;;;;5.85;4.53;;;;;;;27.11;84.73;99706.55;1450011;90;21479;-78
2023/07/20 09:30:16;;;;;;;10.48;4.97;;;;;;;27.14;83.46;99703.83;1374526;90;22462;-79
2023/07/20 09:32:45;;;;;;;9.15;5.60;;;;;;;27.23;85.16;99706.28;1369514;90;21407;-81
2023/07/20 09:35:18;;;;;;;9.55;4.80;;;;;;;27.32;85.70;99703.27;1368143;90;21470;-80
2023/07/20 09:38:01;;;;;;;15.45;4.92;;;;;;;27.44;85.25;99707.84;1523838;90;21398;-80
2023/07/20 09:40:27;;;;;;;6.25;5.03;;;;;;;27.33;82.75;99714.38;1515068;90;21570;-79
2023/07/20 09:43:03;;;;;;;7.10;4.53;;;;;;;27.27;83.69;99720.92;1374914;90;21391;-79
2023/07/20 09:45:37;;;;;;;8.50;4.85;;;;;;;27.05;83.66;99721.22;1367152;91;22308;-79
2023/07/20 09:48:07;;;;;;;10.28;4.92;;;;;;;26.87;82.68;99719.05;1503610;90;22264;-79
2023/07/20 09:50:34;;;;;;;;;;;;;;;26.98;85.19;99716.05;1377029;90;21353;-80
2023/07/20 09:53:02;;;;;;;7.22;5.17;;;;;;;27.15;84.89;99707.64;1404399;90;20396;-79
2023/07/20 09:55:29;;;;;;;10.85;5.40;;;;;;;27.49;85.71;99703.48;1444632;90;21461;-79
2023/07/20 09:57:56;;;;;;;11.38;5.58;;;;;;;27.67;81.92;99709.11;1444623;90;22433;-80
2023/07/20 10:00:23;;;;;;;12.05;4.78;;;;;;;27.98;82.55;99705.48;1445299;90;22098;-78
2023/07/20 10:02:52;;;;;;;7.35;5.55;;;;;;;28.21;81.50;99707.51;1410878;90;21708;-80
2023/07/20 10:05:19;;;;;;;13.62;5.92;;;;;;;28.42;83.13;99701.95;1445586;90;21502;-80
2023/07/20 10:07:50;;;;;;;18.75;6.47;;;;;;;28.65;80.09;99705.86;1444746;90;21472;-80
2023/07/20 10:10:19;;;;;;;11.45;5.28;;;;;;;28.46;76.35;99701.67;1438187;90;21501;-80
2023/07/20 10:12:48;;;;;;;9.83;5.28;;;;;;;28.59;76.25;99708.36;1369110;90;22328;-81
2023/07/20 10:15:26;;;;;;;;;;;;;;;28.48;76.95;99708.98;1369485;90;21436;-80
2023/07/20 10:18:10;;;;;;;7.47;5.03;;;;;;;28.10;77.03;99712.20;1525194;90;20249;-79
2023/07/20 10:20:40;;;;;;;13.13;6.40;;;;;;;28.22;79.31;99710.48;1499686;90;22477;-79
2023/07/20 10:23:07;;;;;;;13.00;5.45;;;;;;;28.46;78.14;99718.00;1373551;90;22285;-80
2023/07/20 10:25:37;;;;;;;10.72;6.33;;;;;;;28.60;77.61;99710.82;1371392;90;21450;-80
2023/07/20 10:28:02;;;;;;;10.45;5.50;;;;;;;28.75;77.25;99718.85;1524007;90;21377;-79
2023/07/20 10:30:28;;;;;;;12.20;5.37;;;;;;;28.64;76.96;99715.14;1376840;90;21788;-79
2023/07/20 10:32:54;;;;;;;12.63;5.25;;;;;;;28.81;78.05;99712.00;1371468;90;21406;-80
2023/07/20 10:35:21;;;;;;;7.25;6.37;;;;;;;28.99;77.05;99709.92;1371734;90;21458;-79
2023/07/20 10:37:57;;;;;;;9.95;5.30;;;;;;;29.07;76.94;99707.97;1376945;90;21435;-81
2023/07/20 10:40:36;;;;;;;10.10;4.90;;;;;;;29.09;77.41;99709.86;1522999;90;22323;-79
2023/07/20 10:43:07;;;;;;;8.40;6.00;;;;;;;28.91;77.28;99703.73;1356678;90;21473;-80
2023/07/20 10:45:44;;;;;;;9.38;5.65;;;;;;;28.67;77.15;99696.87;1525467;90;21362;-79
2023/07/20 10:48:16;;;;;;;6.40;5.05;;;;;;;28.77;77.03;99698.97;1524517;90;22286;-79
2023/07/20 10:50:43;;;;;;;7.83;5.47;;;;;;;28.54;76.08;99692.35;1436293;90;21501;-79
2023/07/20 10:53:18;;;;;;;6.75;5.08;;;;;;;28.49;76.94;99692.94;1442777;90;21428;-80
2023/07/20 10:55:46;;;;;;;8.03;5.42;;;;;;;28.63;77.53;99688.47;1440291;90;21479;-79
2023/07/20 10:58:15;;;;;;;8.28;5.45;;;;;;;28.94;78.56;99684.09;1444548;90;22603;-79
2023/07/20 11:01:05;;;;;;;9.25;5.28;;;;;;;29.24;76.02;99681.08;1441684;90;21619;-79
2023/07/20 11:03:34;;;;;;;9.23;4.85;;;;;;;29.41;74.81;99681.18;1442275;90;21657;-80
2023/07/20 11:06:27;;;;;;;9.65;5.22;;;;;;;29.36;74.63;99679.31;1372334;90;21443;-79
2023/07/20 11:09:16;;;;;;;8.25;5.78;;;;;;;29.40;73.86;99683.63;1521075;90;21370;-78
2023/07/20 11:11:48;;;;;;;4.97;4.53;;;;;;;29.49;74.41;99679.70;1515572;90;21421;-80
2023/07/20 11:14:25;;;;;;;5.50;4.83;;;;;;;29.50;74.33;99683.52;1521510;90;21362;-77
2023/07/20 11:16:53;;;;;;;7.75;5.60;;;;;;;29.50;73.42;99682.71;1360179;92;21390;-79
2023/07/20 11:19:24;;;;;;;7.58;5.70;;;;;;;29.49;74.07;99677.78;1521022;90;21348;-78
2023/07/20 11:21:57;;;;;;;14.35;5.50;;;;;;;29.50;73.06;99672.61;1426998;90;21428;-78
2023/07/20 11:24:24;;;;;;;8.05;5.12;;;;;;;29.29;73.12;99665.77;1514471;90;21406;-78
2023/07/20 11:26:54;;;;;;;10.50;4.60;;;;;;;29.41;75.08;99663.47;1517533;90;21466;-78
2023/07/20 11:29:23;;;;;;;6.47;4.75;;;;;;;29.45;72.07;99665.86;1521625;90;21565;-78
2023/07/20 11:31:50;;;;;;;6.53;5.50;;;;;;;29.35;73.06;99659.18;1365408;90;21384;-78